sensor_id;sensor_type;location;lat;lon;timestamp;temperature;humidity
66328;DHT22;53133;52.862;6.602;2022-11-20T00:00:34;-0.30;99.90
66328;DHT22;53133;52.862;6.602;2022-11-20T00:03:03;-0.20;99.90
66328;DHT22;53133;52.862;6.602;2022-11-20T00:05:31;-0.20;99.90
66328;DHT22;53133;52.862;6.602;2022-11-20T00:07:57;-0.10;99.90
66328;DHT22;53133;52.862;6.602;2022-11-20T00:10:22;-0.10;99.90
66328;DHT22;53133;52.862;6.602;2022-11-20T00:12:48;0.00;99.90
66328;DHT22;53133;52.862;6.602;2022-11-20T00:15:13;0.00;99.90
66328;DHT22;53133;52.862;6.602;2022-11-20T00:17:39;0.00;99.90
66328;DHT22;53133;52.862;6.602;2022-11-20T00:20:05;0.00;99.90
66328;DHT22;53133;52.862;6.602;2022-11-20T00:22:30;0.10;99.90
66328;DHT22;53133;52.862;6.602;2022-11-20T00:24:56;0.10;99.90
66328;DHT22;53133;52.862;6.602;2022-11-20T00:27:23;0.10;99.90
66328;DHT22;53133;52.862;6.602;2022-11-20T00:29:48;0.20;99.90
66328;DHT22;53133;52.862;6.602;2022-11-20T00:32:14;0.20;99.90
66328;DHT22;53133;52.862;6.602;2022-11-20T00:34:40;0.20;99.90
66328;DHT22;53133;52.862;6.602;2022-11-20T00:37:05;0.20;99.90
66328;DHT22;53133;52.862;6.602;2022-11-20T00:39:31;0.20;99.90
66328;DHT22;53133;52.862;6.602;2022-11-20T00:41:56;0.20;99.90
66328;DHT22;53133;52.862;6.602;2022-11-20T00:44:22;0.20;99.90
66328;DHT22;53133;52.862;6.602;2022-11-20T00:46:47;0.30;99.90
66328;DHT22;53133;52.862;6.602;2022-11-20T00:49:13;0.30;99.90
66328;DHT22;53133;52.862;6.602;2022-11-20T00:51:39;0.40;99.90
66328;DHT22;53133;52.862;6.602;2022-11-20T00:54:04;0.40;99.90
66328;DHT22;53133;52.862;6.602;2022-11-20T00:56:30;0.30;99.90
66328;DHT22;53133;52.862;6.602;2022-11-20T00:58:58;0.30;99.90
66328;DHT22;53133;52.862;6.602;2022-11-20T01:01:27;0.30;99.90
66328;DHT22;53133;52.862;6.602;2022-11-20T01:03:56;0.30;99.90
66328;DHT22;53133;52.862;6.602;2022-11-20T01:06:22;0.40;99.90
66328;DHT22;53133;52.862;6.602;2022-11-20T01:08:49;0.30;99.90
66328;DHT22;53133;52.862;6.602;2022-11-20T01:11:17;0.40;99.90
66328;DHT22;53133;52.862;6.602;2022-11-20T01:13:45;0.40;99.90
66328;DHT22;53133;52.862;6.602;2022-11-20T01:16:16;0.40;99.90
66328;DHT22;53133;52.862;6.602;2022-11-20T01:18:47;0.50;99.90
66328;DHT22;53133;52.862;6.602;2022-11-20T01:21:21;0.50;99.90
66328;DHT22;53133;52.862;6.602;2022-11-20T01:23:47;0.50;99.90
66328;DHT22;53133;52.862;6.602;2022-11-20T01:26:16;0.50;99.90
66328;DHT22;53133;52.862;6.602;2022-11-20T01:28:43;0.50;99.90
66328;DHT22;53133;52.862;6.602;2022-11-20T01:31:20;0.50;99.90
66328;DHT22;53133;52.862;6.602;2022-11-20T01:33:47;0.50;99.90
66328;DHT22;53133;52.862;6.602;2022-11-20T01:36:14;0.50;99.90
66328;DHT22;53133;52.862;6.602;2022-11-20T01:38:40;0.50;99.90
66328;DHT22;53133;52.862;6.602;2022-11-20T01:41:07;0.50;99.90
66328;DHT22;53133;52.862;6.602;2022-11-20T01:43:33;0.50;99.90
66328;DHT22;53133;52.862;6.602;2022-11-20T01:48:38;0.50;99.90
66328;DHT22;53133;52.862;6.602;2022-11-20T01:51:13;0.50;99.90
66328;DHT22;53133;52.862;6.602;2022-11-20T01:53:40;0.60;99.90
66328;DHT22;53133;52.862;6.602;2022-11-20T01:56:09;0.60;99.90
66328;DHT22;53133;52.862;6.602;2022-11-20T01:58:37;0.60;99.90
66328;DHT22;53133;52.862;6.602;2022-11-20T02:01:07;0.60;99.90
66328;DHT22;53133;52.862;6.602;2022-11-20T02:03:33;0.60;99.90
66328;DHT22;53133;52.862;6.602;2022-11-20T02:06:26;0.60;99.90
66328;DHT22;53133;52.862;6.602;2022-11-20T02:08:54;0.70;99.90
66328;DHT22;53133;52.862;6.602;2022-11-20T02:11:20;0.70;99.90
66328;DHT22;53133;52.862;6.602;2022-11-20T02:13:46;0.70;99.90
66328;DHT22;53133;52.862;6.602;2022-11-20T02:16:27;0.70;99.90
66328;DHT22;53133;52.862;6.602;2022-11-20T02:18:55;0.70;99.90
66328;DHT22;53133;52.862;6.602;2022-11-20T02:21:40;0.70;99.90
66328;DHT22;53133;52.862;6.602;2022-11-20T02:24:11;0.70;99.90
66328;DHT22;53133;52.862;6.602;2022-11-20T02:27:05;0.70;99.90
66328;DHT22;53133;52.862;6.602;2022-11-20T02:29:42;0.80;99.90
66328;DHT22;53133;52.862;6.602;2022-11-20T02:32:25;0.80;99.90
66328;DHT22;53133;52.862;6.602;2022-11-20T02:34:52;0.80;99.90
66328;DHT22;53133;52.862;6.602;2022-11-20T02:37:18;0.80;99.90
66328;DHT22;53133;52.862;6.602;2022-11-20T02:39:49;0.80;99.90
66328;DHT22;53133;52.862;6.602;2022-11-20T02:42:18;0.80;99.90
66328;DHT22;53133;52.862;6.602;2022-11-20T02:44:44;0.80;99.90
66328;DHT22;53133;52.862;6.602;2022-11-20T02:47:10;0.80;99.90
66328;DHT22;53133;52.862;6.602;2022-11-20T02:49:35;0.80;99.90
66328;DHT22;53133;52.862;6.602;2022-11-20T02:52:01;0.80;99.90
66328;DHT22;53133;52.862;6.602;2022-11-20T02:54:26;0.80;99.90
66328;DHT22;53133;52.862;6.602;2022-11-20T02:56:52;0.80;99.90
66328;DHT22;53133;52.862;6.602;2022-11-20T02:59:18;0.80;99.90
66328;DHT22;53133;52.862;6.602;2022-11-20T03:01:43;0.80;99.90
66328;DHT22;53133;52.862;6.602;2022-11-20T03:04:09;0.90;99.90
66328;DHT22;53133;52.862;6.602;2022-11-20T03:06:34;0.90;99.90
66328;DHT22;53133;52.862;6.602;2022-11-20T03:09:00;0.90;99.90
66328;DHT22;53133;52.862;6.602;2022-11-20T03:11:26;0.90;99.90
66328;DHT22;53133;52.862;6.602;2022-11-20T03:13:51;0.90;99.90
66328;DHT22;53133;52.862;6.602;2022-11-20T03:16:19;0.90;99.90
66328;DHT22;53133;52.862;6.602;2022-11-20T03:18:45;0.90;99.90
66328;DHT22;53133;52.862;6.602;2022-11-20T03:21:12;0.90;99.90
66328;DHT22;53133;52.862;6.602;2022-11-20T03:23:39;0.90;99.90
66328;DHT22;53133;52.862;6.602;2022-11-20T03:26:20;1.00;99.90
66328;DHT22;53133;52.862;6.602;2022-11-20T03:28:47;1.00;99.90
66328;DHT22;53133;52.862;6.602;2022-11-20T03:31:15;0.90;99.90
66328;DHT22;53133;52.862;6.602;2022-11-20T03:33:42;0.90;99.90
66328;DHT22;53133;52.862;6.602;2022-11-20T03:36:13;1.00;99.90
66328;DHT22;53133;52.862;6.602;2022-11-20T03:38:39;1.00;99.90
66328;DHT22;53133;52.862;6.602;2022-11-20T03:41:09;0.90;99.90
66328;DHT22;53133;52.862;6.602;2022-11-20T03:43:35;0.90;99.90
66328;DHT22;53133;52.862;6.602;2022-11-20T03:46:01;0.90;99.90
66328;DHT22;53133;52.862;6.602;2022-11-20T03:48:27;0.90;99.90
66328;DHT22;53133;52.862;6.602;2022-11-20T03:51:06;1.00;99.90
66328;DHT22;53133;52.862;6.602;2022-11-20T03:53:31;1.00;99.90
66328;DHT22;53133;52.862;6.602;2022-11-20T03:55:57;1.00;99.90
66328;DHT22;53133;52.862;6.602;2022-11-20T03:58:22;1.00;99.90
66328;DHT22;53133;52.862;6.602;2022-11-20T04:00:48;1.00;99.90
66328;DHT22;53133;52.862;6.602;2022-11-20T04:03:13;1.00;99.90
66328;DHT22;53133;52.862;6.602;2022-11-20T04:05:39;1.00;99.90
66328;DHT22;53133;52.862;6.602;2022-11-20T04:08:05;1.00;99.90
66328;DHT22;53133;52.862;6.602;2022-11-20T04:10:30;1.00;99.90
66328;DHT22;53133;52.862;6.602;2022-11-20T04:12:56;0.90;99.90
66328;DHT22;53133;52.862;6.602;2022-11-20T04:15:21;1.00;99.90
66328;DHT22;53133;52.862;6.602;2022-11-20T04:17:47;1.00;99.90
66328;DHT22;53133;52.862;6.602;2022-11-20T04:20:13;1.00;99.90
66328;DHT22;53133;52.862;6.602;2022-11-20T04:22:38;1.00;99.90
66328;DHT22;53133;52.862;6.602;2022-11-20T04:25:04;1.00;99.90
66328;DHT22;53133;52.862;6.602;2022-11-20T04:27:33;1.00;99.90
66328;DHT22;53133;52.862;6.602;2022-11-20T04:29:58;1.00;99.90
66328;DHT22;53133;52.862;6.602;2022-11-20T04:32:24;1.10;99.90
66328;DHT22;53133;52.862;6.602;2022-11-20T04:34:52;1.10;99.90
66328;DHT22;53133;52.862;6.602;2022-11-20T04:37:18;1.10;99.90
66328;DHT22;53133;52.862;6.602;2022-11-20T04:39:44;1.10;99.90
66328;DHT22;53133;52.862;6.602;2022-11-20T04:42:10;1.10;99.90
66328;DHT22;53133;52.862;6.602;2022-11-20T04:44:54;1.20;99.90
66328;DHT22;53133;52.862;6.602;2022-11-20T04:47:23;1.20;99.90
66328;DHT22;53133;52.862;6.602;2022-11-20T04:49:48;1.20;99.90
66328;DHT22;53133;52.862;6.602;2022-11-20T04:52:14;1.20;99.90
66328;DHT22;53133;52.862;6.602;2022-11-20T04:54:40;1.20;99.90
66328;DHT22;53133;52.862;6.602;2022-11-20T04:57:05;1.20;99.90
66328;DHT22;53133;52.862;6.602;2022-11-20T04:59:31;1.20;99.90
66328;DHT22;53133;52.862;6.602;2022-11-20T05:01:56;1.20;99.90
66328;DHT22;53133;52.862;6.602;2022-11-20T05:04:22;1.20;99.90
66328;DHT22;53133;52.862;6.602;2022-11-20T05:06:49;1.20;99.90
66328;DHT22;53133;52.862;6.602;2022-11-20T05:09:15;1.30;99.90
66328;DHT22;53133;52.862;6.602;2022-11-20T05:11:40;1.20;99.90
66328;DHT22;53133;52.862;6.602;2022-11-20T05:14:06;1.20;99.90
66328;DHT22;53133;52.862;6.602;2022-11-20T05:16:34;1.20;99.90
66328;DHT22;53133;52.862;6.602;2022-11-20T05:18:59;1.30;99.90
66328;DHT22;53133;52.862;6.602;2022-11-20T05:21:25;1.30;99.90
66328;DHT22;53133;52.862;6.602;2022-11-20T05:23:50;1.30;99.90
66328;DHT22;53133;52.862;6.602;2022-11-20T05:26:21;1.30;99.90
66328;DHT22;53133;52.862;6.602;2022-11-20T05:28:47;1.30;99.90
66328;DHT22;53133;52.862;6.602;2022-11-20T05:31:15;1.30;99.90
66328;DHT22;53133;52.862;6.602;2022-11-20T05:33:42;1.30;99.90
66328;DHT22;53133;52.862;6.602;2022-11-20T05:36:09;1.30;99.90
66328;DHT22;53133;52.862;6.602;2022-11-20T05:38:34;1.30;99.90
66328;DHT22;53133;52.862;6.602;2022-11-20T05:41:17;1.30;99.90
66328;DHT22;53133;52.862;6.602;2022-11-20T05:43:44;1.30;99.90
66328;DHT22;53133;52.862;6.602;2022-11-20T05:46:12;1.30;99.90
66328;DHT22;53133;52.862;6.602;2022-11-20T05:48:43;1.20;99.90
66328;DHT22;53133;52.862;6.602;2022-11-20T05:51:12;1.20;99.90
66328;DHT22;53133;52.862;6.602;2022-11-20T05:53:38;1.20;99.90
66328;DHT22;53133;52.862;6.602;2022-11-20T05:56:09;1.20;99.90
66328;DHT22;53133;52.862;6.602;2022-11-20T05:58:36;1.30;99.90
66328;DHT22;53133;52.862;6.602;2022-11-20T06:01:07;1.20;99.90
66328;DHT22;53133;52.862;6.602;2022-11-20T06:03:32;1.20;99.90
66328;DHT22;53133;52.862;6.602;2022-11-20T06:06:02;1.20;99.90
66328;DHT22;53133;52.862;6.602;2022-11-20T06:08:29;1.20;99.90
66328;DHT22;53133;52.862;6.602;2022-11-20T06:10:54;1.20;99.90
66328;DHT22;53133;52.862;6.602;2022-11-20T06:13:20;1.30;99.90
66328;DHT22;53133;52.862;6.602;2022-11-20T06:15:52;1.30;99.90
66328;DHT22;53133;52.862;6.602;2022-11-20T06:18:19;1.30;99.90
66328;DHT22;53133;52.862;6.602;2022-11-20T06:20:45;1.30;99.90
66328;DHT22;53133;52.862;6.602;2022-11-20T06:23:12;1.30;99.90
66328;DHT22;53133;52.862;6.602;2022-11-20T06:25:39;1.30;99.90
66328;DHT22;53133;52.862;6.602;2022-11-20T06:28:05;1.30;99.90
66328;DHT22;53133;52.862;6.602;2022-11-20T06:30:31;1.30;99.90
66328;DHT22;53133;52.862;6.602;2022-11-20T06:32:56;1.40;99.90
66328;DHT22;53133;52.862;6.602;2022-11-20T06:35:22;1.40;99.90
66328;DHT22;53133;52.862;6.602;2022-11-20T06:37:47;1.40;99.90
66328;DHT22;53133;52.862;6.602;2022-11-20T06:40:13;1.40;99.90
66328;DHT22;53133;52.862;6.602;2022-11-20T06:42:38;1.40;99.90
66328;DHT22;53133;52.862;6.602;2022-11-20T06:45:04;1.30;99.90
66328;DHT22;53133;52.862;6.602;2022-11-20T06:47:30;1.30;99.90
66328;DHT22;53133;52.862;6.602;2022-11-20T06:49:55;1.30;99.90
66328;DHT22;53133;52.862;6.602;2022-11-20T06:52:21;1.30;99.90
66328;DHT22;53133;52.862;6.602;2022-11-20T06:54:47;1.40;99.90
66328;DHT22;53133;52.862;6.602;2022-11-20T06:57:12;1.40;99.90
66328;DHT22;53133;52.862;6.602;2022-11-20T06:59:38;1.40;99.90
66328;DHT22;53133;52.862;6.602;2022-11-20T07:02:03;1.40;99.90
66328;DHT22;53133;52.862;6.602;2022-11-20T07:04:31;1.40;99.90
66328;DHT22;53133;52.862;6.602;2022-11-20T07:06:57;1.40;99.90
66328;DHT22;53133;52.862;6.602;2022-11-20T07:09:22;1.40;99.90
66328;DHT22;53133;52.862;6.602;2022-11-20T07:11:48;1.40;99.90
66328;DHT22;53133;52.862;6.602;2022-11-20T07:14:14;1.50;99.90
66328;DHT22;53133;52.862;6.602;2022-11-20T07:16:39;1.40;99.90
66328;DHT22;53133;52.862;6.602;2022-11-20T07:19:05;1.40;99.90
66328;DHT22;53133;52.862;6.602;2022-11-20T07:21:30;1.50;99.90
66328;DHT22;53133;52.862;6.602;2022-11-20T07:23:56;1.50;99.90
66328;DHT22;53133;52.862;6.602;2022-11-20T07:26:22;1.50;99.90
66328;DHT22;53133;52.862;6.602;2022-11-20T07:28:47;1.50;99.90
66328;DHT22;53133;52.862;6.602;2022-11-20T07:31:13;1.50;99.90
66328;DHT22;53133;52.862;6.602;2022-11-20T07:33:41;1.50;99.90
66328;DHT22;53133;52.862;6.602;2022-11-20T07:36:07;1.50;99.90
66328;DHT22;53133;52.862;6.602;2022-11-20T07:38:33;1.60;99.90
66328;DHT22;53133;52.862;6.602;2022-11-20T07:41:01;1.60;99.90
66328;DHT22;53133;52.862;6.602;2022-11-20T07:43:27;1.60;99.90
66328;DHT22;53133;52.862;6.602;2022-11-20T07:45:55;1.60;99.90
66328;DHT22;53133;52.862;6.602;2022-11-20T07:48:21;1.60;99.90
66328;DHT22;53133;52.862;6.602;2022-11-20T07:50:47;1.60;99.90
66328;DHT22;53133;52.862;6.602;2022-11-20T07:53:12;1.60;99.90
66328;DHT22;53133;52.862;6.602;2022-11-20T07:55:39;1.60;99.90
66328;DHT22;53133;52.862;6.602;2022-11-20T07:58:05;1.60;99.90
66328;DHT22;53133;52.862;6.602;2022-11-20T08:00:31;1.60;99.90
66328;DHT22;53133;52.862;6.602;2022-11-20T08:02:56;1.60;99.90
66328;DHT22;53133;52.862;6.602;2022-11-20T08:05:22;1.60;99.90
66328;DHT22;53133;52.862;6.602;2022-11-20T08:07:48;1.70;99.90
66328;DHT22;53133;52.862;6.602;2022-11-20T08:10:15;1.70;99.90
66328;DHT22;53133;52.862;6.602;2022-11-20T08:12:49;1.70;99.90
66328;DHT22;53133;52.862;6.602;2022-11-20T08:15:34;1.70;99.90
66328;DHT22;53133;52.862;6.602;2022-11-20T08:18:08;1.70;99.90
66328;DHT22;53133;52.862;6.602;2022-11-20T08:20:34;1.70;99.90
66328;DHT22;53133;52.862;6.602;2022-11-20T08:23:01;1.80;99.90
66328;DHT22;53133;52.862;6.602;2022-11-20T08:25:29;1.70;99.90
66328;DHT22;53133;52.862;6.602;2022-11-20T08:27:57;1.80;99.90
66328;DHT22;53133;52.862;6.602;2022-11-20T08:30:23;1.80;99.90
66328;DHT22;53133;52.862;6.602;2022-11-20T08:32:48;1.80;99.90
66328;DHT22;53133;52.862;6.602;2022-11-20T08:35:14;1.80;99.90
66328;DHT22;53133;52.862;6.602;2022-11-20T08:37:39;1.80;99.90
66328;DHT22;53133;52.862;6.602;2022-11-20T08:40:10;1.70;99.90
66328;DHT22;53133;52.862;6.602;2022-11-20T08:42:36;1.70;99.90
66328;DHT22;53133;52.862;6.602;2022-11-20T08:45:02;1.80;99.90
66328;DHT22;53133;52.862;6.602;2022-11-20T08:47:28;1.80;99.90
66328;DHT22;53133;52.862;6.602;2022-11-20T08:49:53;1.80;99.90
66328;DHT22;53133;52.862;6.602;2022-11-20T08:52:19;1.90;99.90
66328;DHT22;53133;52.862;6.602;2022-11-20T08:54:44;1.90;99.90
66328;DHT22;53133;52.862;6.602;2022-11-20T08:57:10;1.90;99.90
66328;DHT22;53133;52.862;6.602;2022-11-20T08:59:35;1.90;99.90
66328;DHT22;53133;52.862;6.602;2022-11-20T09:02:01;1.90;99.90
66328;DHT22;53133;52.862;6.602;2022-11-20T09:04:26;1.90;99.90
66328;DHT22;53133;52.862;6.602;2022-11-20T09:06:52;1.90;99.90
66328;DHT22;53133;52.862;6.602;2022-11-20T09:09:18;1.90;99.90
66328;DHT22;53133;52.862;6.602;2022-11-20T09:11:44;1.90;99.90
66328;DHT22;53133;52.862;6.602;2022-11-20T09:14:09;1.90;99.90
66328;DHT22;53133;52.862;6.602;2022-11-20T09:16:35;2.00;99.90
66328;DHT22;53133;52.862;6.602;2022-11-20T09:19:01;2.00;99.90
66328;DHT22;53133;52.862;6.602;2022-11-20T09:21:26;2.00;99.90
66328;DHT22;53133;52.862;6.602;2022-11-20T09:23:52;2.00;99.90
66328;DHT22;53133;52.862;6.602;2022-11-20T09:26:17;2.00;99.90
66328;DHT22;53133;52.862;6.602;2022-11-20T09:28:43;2.00;99.90
66328;DHT22;53133;52.862;6.602;2022-11-20T09:31:16;2.10;99.90
66328;DHT22;53133;52.862;6.602;2022-11-20T09:33:42;2.10;99.90
66328;DHT22;53133;52.862;6.602;2022-11-20T09:36:08;2.20;99.90
66328;DHT22;53133;52.862;6.602;2022-11-20T09:38:34;2.20;99.90
66328;DHT22;53133;52.862;6.602;2022-11-20T09:41:03;2.20;99.90
66328;DHT22;53133;52.862;6.602;2022-11-20T09:44:06;2.30;99.90
66328;DHT22;53133;52.862;6.602;2022-11-20T09:46:29;2.40;99.90
66328;DHT22;53133;52.862;6.602;2022-11-20T09:49:25;2.40;99.90
66328;DHT22;53133;52.862;6.602;2022-11-20T09:51:58;2.40;99.90
66328;DHT22;53133;52.862;6.602;2022-11-20T09:54:36;2.50;99.90
66328;DHT22;53133;52.862;6.602;2022-11-20T09:57:05;2.50;99.90
66328;DHT22;53133;52.862;6.602;2022-11-20T09:59:39;2.60;99.90
66328;DHT22;53133;52.862;6.602;2022-11-20T10:04:47;2.60;99.90
66328;DHT22;53133;52.862;6.602;2022-11-20T10:07:17;2.60;99.90
66328;DHT22;53133;52.862;6.602;2022-11-20T10:09:56;2.70;99.90
66328;DHT22;53133;52.862;6.602;2022-11-20T10:15:26;2.70;99.90
66328;DHT22;53133;52.862;6.602;2022-11-20T10:23:59;2.90;99.90
66328;DHT22;53133;52.862;6.602;2022-11-20T10:29:16;2.90;99.90
66328;DHT22;53133;52.862;6.602;2022-11-20T10:31:45;2.90;99.90
66328;DHT22;53133;52.862;6.602;2022-11-20T10:34:28;3.00;99.90
66328;DHT22;53133;52.862;6.602;2022-11-20T10:37:11;3.00;99.90
66328;DHT22;53133;52.862;6.602;2022-11-20T10:39:57;2.90;99.90
66328;DHT22;53133;52.862;6.602;2022-11-20T10:42:39;2.90;99.90
66328;DHT22;53133;52.862;6.602;2022-11-20T10:48:04;3.00;99.90
66328;DHT22;53133;52.862;6.602;2022-11-20T10:50:36;3.00;99.90
66328;DHT22;53133;52.862;6.602;2022-11-20T10:53:16;3.00;99.90
66328;DHT22;53133;52.862;6.602;2022-11-20T10:55:50;3.00;99.90
66328;DHT22;53133;52.862;6.602;2022-11-20T11:01:13;3.10;99.90
66328;DHT22;53133;52.862;6.602;2022-11-20T11:03:40;3.10;99.90
66328;DHT22;53133;52.862;6.602;2022-11-20T11:06:14;3.20;99.90
66328;DHT22;53133;52.862;6.602;2022-11-20T11:08:43;3.20;99.90
66328;DHT22;53133;52.862;6.602;2022-11-20T11:11:22;3.20;99.90
66328;DHT22;53133;52.862;6.602;2022-11-20T11:13:48;3.20;99.90
66328;DHT22;53133;52.862;6.602;2022-11-20T11:16:25;3.30;99.90
66328;DHT22;53133;52.862;6.602;2022-11-20T11:18:51;3.30;99.90
66328;DHT22;53133;52.862;6.602;2022-11-20T11:21:25;3.40;99.90
66328;DHT22;53133;52.862;6.602;2022-11-20T11:23:59;3.40;99.90
66328;DHT22;53133;52.862;6.602;2022-11-20T11:26:25;3.40;99.80
66328;DHT22;53133;52.862;6.602;2022-11-20T11:28:59;3.40;99.70
66328;DHT22;53133;52.862;6.602;2022-11-20T11:31:28;3.40;99.50
66328;DHT22;53133;52.862;6.602;2022-11-20T11:34:17;3.40;99.50
66328;DHT22;53133;52.862;6.602;2022-11-20T11:36:56;3.40;99.10
66328;DHT22;53133;52.862;6.602;2022-11-20T11:39:23;3.50;99.90
66328;DHT22;53133;52.862;6.602;2022-11-20T11:41:49;3.50;99.80
66328;DHT22;53133;52.862;6.602;2022-11-20T11:44:33;3.50;99.90
66328;DHT22;53133;52.862;6.602;2022-11-20T11:47:25;3.50;99.90
66328;DHT22;53133;52.862;6.602;2022-11-20T12:01:10;3.80;99.10
66328;DHT22;53133;52.862;6.602;2022-11-20T12:03:40;3.80;98.50
66328;DHT22;53133;52.862;6.602;2022-11-20T12:06:12;3.90;98.40
66328;DHT22;53133;52.862;6.602;2022-11-20T12:08:56;4.00;97.40
66328;DHT22;53133;52.862;6.602;2022-11-20T12:11:30;4.00;95.40
66328;DHT22;53133;52.862;6.602;2022-11-20T12:14:16;4.00;96.60
66328;DHT22;53133;52.862;6.602;2022-11-20T12:16:45;4.10;95.00
66328;DHT22;53133;52.862;6.602;2022-11-20T12:19:12;4.10;95.90
66328;DHT22;53133;52.862;6.602;2022-11-20T12:24:22;4.10;95.90
66328;DHT22;53133;52.862;6.602;2022-11-20T12:29:51;4.10;96.20
66328;DHT22;53133;52.862;6.602;2022-11-20T12:40:45;4.00;96.90
66328;DHT22;53133;52.862;6.602;2022-11-20T12:43:25;3.90;96.80
66328;DHT22;53133;52.862;6.602;2022-11-20T12:46:27;3.90;96.50
66328;DHT22;53133;52.862;6.602;2022-11-20T12:52:25;3.80;97.30
66328;DHT22;53133;52.862;6.602;2022-11-20T13:00:12;3.90;96.40
66328;DHT22;53133;52.862;6.602;2022-11-20T13:08:25;3.90;95.90
66328;DHT22;53133;52.862;6.602;2022-11-20T13:16:14;3.80;96.60
66328;DHT22;53133;52.862;6.602;2022-11-20T13:18:42;3.80;96.90
66328;DHT22;53133;52.862;6.602;2022-11-20T13:21:19;3.80;96.80
66328;DHT22;53133;52.862;6.602;2022-11-20T13:23:45;3.80;96.60
66328;DHT22;53133;52.862;6.602;2022-11-20T13:26:20;3.70;96.60
66328;DHT22;53133;52.862;6.602;2022-11-20T13:28:47;3.80;95.90
66328;DHT22;53133;52.862;6.602;2022-11-20T13:31:33;3.80;96.30
66328;DHT22;53133;52.862;6.602;2022-11-20T13:34:01;3.80;96.40
66328;DHT22;53133;52.862;6.602;2022-11-20T13:36:29;3.80;97.00
66328;DHT22;53133;52.862;6.602;2022-11-20T13:38:56;3.80;97.10
66328;DHT22;53133;52.862;6.602;2022-11-20T13:41:34;3.80;96.70
66328;DHT22;53133;52.862;6.602;2022-11-20T13:44:38;3.80;96.60
66328;DHT22;53133;52.862;6.602;2022-11-20T13:47:17;3.70;96.90
66328;DHT22;53133;52.862;6.602;2022-11-20T13:49:45;3.70;97.40
66328;DHT22;53133;52.862;6.602;2022-11-20T14:01:09;3.70;97.60
66328;DHT22;53133;52.862;6.602;2022-11-20T14:03:36;3.70;97.20
66328;DHT22;53133;52.862;6.602;2022-11-20T14:06:05;3.70;97.50
66328;DHT22;53133;52.862;6.602;2022-11-20T14:08:46;3.70;97.80
66328;DHT22;53133;52.862;6.602;2022-11-20T14:13:40;3.70;98.20
66328;DHT22;53133;52.862;6.602;2022-11-20T14:16:19;3.70;98.10
66328;DHT22;53133;52.862;6.602;2022-11-20T14:18:45;3.70;98.10
66328;DHT22;53133;52.862;6.602;2022-11-20T14:21:11;3.70;98.10
66328;DHT22;53133;52.862;6.602;2022-11-20T14:23:36;3.70;98.20
66328;DHT22;53133;52.862;6.602;2022-11-20T14:26:04;3.70;98.40
66328;DHT22;53133;52.862;6.602;2022-11-20T14:28:30;3.70;98.70
66328;DHT22;53133;52.862;6.602;2022-11-20T14:30:56;3.60;98.70
66328;DHT22;53133;52.862;6.602;2022-11-20T14:33:23;3.60;99.40
66328;DHT22;53133;52.862;6.602;2022-11-20T14:35:59;3.60;99.20
66328;DHT22;53133;52.862;6.602;2022-11-20T14:38:29;3.60;99.20
66328;DHT22;53133;52.862;6.602;2022-11-20T14:41:08;3.60;99.50
66328;DHT22;53133;52.862;6.602;2022-11-20T14:43:34;3.60;99.80
66328;DHT22;53133;52.862;6.602;2022-11-20T14:46:05;3.60;99.90
66328;DHT22;53133;52.862;6.602;2022-11-20T14:48:45;3.60;99.90
66328;DHT22;53133;52.862;6.602;2022-11-20T14:54:17;3.60;99.90
66328;DHT22;53133;52.862;6.602;2022-11-20T14:57:03;3.50;99.90
66328;DHT22;53133;52.862;6.602;2022-11-20T14:59:32;3.50;99.90
66328;DHT22;53133;52.862;6.602;2022-11-20T15:01:59;3.50;99.90
66328;DHT22;53133;52.862;6.602;2022-11-20T15:04:26;3.50;99.90
66328;DHT22;53133;52.862;6.602;2022-11-20T15:06:54;3.50;99.90
66328;DHT22;53133;52.862;6.602;2022-11-20T15:09:20;3.50;99.90
66328;DHT22;53133;52.862;6.602;2022-11-20T15:11:58;3.50;99.90
66328;DHT22;53133;52.862;6.602;2022-11-20T15:14:25;3.50;99.90
66328;DHT22;53133;52.862;6.602;2022-11-20T15:16:52;3.40;99.90
66328;DHT22;53133;52.862;6.602;2022-11-20T15:19:23;3.40;99.90
66328;DHT22;53133;52.862;6.602;2022-11-20T15:21:49;3.40;99.90
66328;DHT22;53133;52.862;6.602;2022-11-20T15:24:15;3.40;99.90
66328;DHT22;53133;52.862;6.602;2022-11-20T15:26:41;3.40;99.90
66328;DHT22;53133;52.862;6.602;2022-11-20T15:29:16;3.30;99.90
66328;DHT22;53133;52.862;6.602;2022-11-20T15:31:46;3.30;99.90
66328;DHT22;53133;52.862;6.602;2022-11-20T15:34:12;3.30;99.90
66328;DHT22;53133;52.862;6.602;2022-11-20T15:36:39;3.30;99.90
66328;DHT22;53133;52.862;6.602;2022-11-20T15:39:05;3.30;99.90
66328;DHT22;53133;52.862;6.602;2022-11-20T15:41:33;3.30;99.90
66328;DHT22;53133;52.862;6.602;2022-11-20T15:43:59;3.30;99.90
66328;DHT22;53133;52.862;6.602;2022-11-20T15:46:27;3.30;99.90
66328;DHT22;53133;52.862;6.602;2022-11-20T15:48:57;3.30;99.90
66328;DHT22;53133;52.862;6.602;2022-11-20T15:51:35;3.20;99.90
66328;DHT22;53133;52.862;6.602;2022-11-20T15:56:38;3.20;99.90
66328;DHT22;53133;52.862;6.602;2022-11-20T15:59:04;3.20;99.90
66328;DHT22;53133;52.862;6.602;2022-11-20T16:01:29;3.20;99.90
66328;DHT22;53133;52.862;6.602;2022-11-20T16:03:55;3.20;99.90
66328;DHT22;53133;52.862;6.602;2022-11-20T16:06:21;3.20;99.90
66328;DHT22;53133;52.862;6.602;2022-11-20T16:08:47;3.20;99.90
66328;DHT22;53133;52.862;6.602;2022-11-20T16:11:14;3.20;99.90
66328;DHT22;53133;52.862;6.602;2022-11-20T16:13:41;3.10;99.90
66328;DHT22;53133;52.862;6.602;2022-11-20T16:16:28;3.10;99.90
66328;DHT22;53133;52.862;6.602;2022-11-20T16:18:55;3.10;99.90
66328;DHT22;53133;52.862;6.602;2022-11-20T16:21:21;3.10;99.90
66328;DHT22;53133;52.862;6.602;2022-11-20T16:23:53;3.10;99.90
66328;DHT22;53133;52.862;6.602;2022-11-20T16:26:18;3.10;99.90
66328;DHT22;53133;52.862;6.602;2022-11-20T16:28:45;3.10;99.90
66328;DHT22;53133;52.862;6.602;2022-11-20T16:31:14;3.10;99.90
66328;DHT22;53133;52.862;6.602;2022-11-20T16:33:40;3.10;99.90
66328;DHT22;53133;52.862;6.602;2022-11-20T16:36:15;3.10;99.90
66328;DHT22;53133;52.862;6.602;2022-11-20T16:38:41;3.10;99.90
66328;DHT22;53133;52.862;6.602;2022-11-20T16:41:08;3.10;99.90
66328;DHT22;53133;52.862;6.602;2022-11-20T16:43:50;3.20;99.90
66328;DHT22;53133;52.862;6.602;2022-11-20T16:46:18;3.20;99.90
66328;DHT22;53133;52.862;6.602;2022-11-20T16:48:45;3.20;99.90
66328;DHT22;53133;52.862;6.602;2022-11-20T16:51:11;3.20;99.90
66328;DHT22;53133;52.862;6.602;2022-11-20T16:53:38;3.20;99.90
66328;DHT22;53133;52.862;6.602;2022-11-20T16:56:17;3.20;99.90
66328;DHT22;53133;52.862;6.602;2022-11-20T16:58:44;3.20;99.90
66328;DHT22;53133;52.862;6.602;2022-11-20T17:01:12;3.20;99.90
66328;DHT22;53133;52.862;6.602;2022-11-20T17:03:39;3.20;99.90
66328;DHT22;53133;52.862;6.602;2022-11-20T17:06:13;3.20;99.90
66328;DHT22;53133;52.862;6.602;2022-11-20T17:08:39;3.20;99.90
66328;DHT22;53133;52.862;6.602;2022-11-20T17:11:13;3.20;99.90
66328;DHT22;53133;52.862;6.602;2022-11-20T17:13:40;3.20;99.90
66328;DHT22;53133;52.862;6.602;2022-11-20T17:16:09;3.10;99.90
66328;DHT22;53133;52.862;6.602;2022-11-20T17:18:35;3.10;99.90
66328;DHT22;53133;52.862;6.602;2022-11-20T17:21:01;3.10;99.90